createdAt,value
2023-08-03T00:01:55.453Z,20.44
2023-08-03T00:04:02.318Z,20.41
2023-08-03T00:06:06.009Z,20.39
2023-08-03T00:08:09.225Z,20.36
2023-08-03T00:10:12.365Z,20.33
2023-08-03T00:12:19.238Z,20.31
2023-08-03T00:14:22.228Z,20.17
2023-08-03T00:16:25.216Z,20.14
2023-08-03T00:18:28.462Z,20.13
2023-08-03T00:20:32.991Z,20.17
2023-08-03T00:22:36.714Z,20.15
2023-08-03T00:24:39.687Z,20.02
2023-08-03T00:26:42.620Z,20.09
2023-08-03T00:28:45.683Z,20.09
2023-08-03T00:30:48.788Z,20.08
2023-08-03T00:32:51.853Z,20.08
2023-08-03T00:34:56.144Z,20.09
2023-08-03T00:37:00.888Z,19.94
2023-08-03T00:39:04.116Z,19.66
2023-08-03T00:41:06.993Z,19.77
2023-08-03T00:43:10.157Z,19.76
2023-08-03T00:45:13.577Z,19.63
2023-08-03T00:47:16.670Z,19.60
2023-08-03T00:49:19.914Z,19.53
2023-08-03T00:51:23.017Z,19.56
2023-08-03T00:53:27.776Z,19.57
2023-08-03T00:55:30.755Z,19.63
2023-08-03T00:57:33.996Z,19.63
2023-08-03T00:59:36.966Z,19.64
2023-08-03T01:01:41.960Z,19.65
2023-08-03T01:03:46.323Z,19.62
2023-08-03T01:05:49.365Z,19.60
2023-08-03T01:07:52.258Z,19.59
2023-08-03T01:09:56.767Z,19.61
2023-08-03T01:11:59.744Z,19.62
2023-08-03T01:14:03.666Z,19.62
2023-08-03T01:16:07.152Z,19.62
2023-08-03T01:18:10.815Z,19.62
2023-08-03T01:20:14.183Z,19.61
2023-08-03T01:22:18.511Z,19.62
2023-08-03T01:24:23.230Z,19.61
2023-08-03T01:26:26.212Z,19.62
2023-08-03T01:28:29.430Z,19.59
2023-08-03T01:30:34.326Z,19.63
2023-08-03T01:32:42.825Z,19.65
2023-08-03T01:34:46.349Z,19.62
2023-08-03T01:36:49.322Z,19.63
2023-08-03T01:38:56.520Z,19.66
2023-08-03T01:41:01.626Z,19.64
2023-08-03T01:43:04.676Z,19.66
2023-08-03T01:45:09.285Z,19.67
2023-08-03T01:47:12.347Z,19.63
2023-08-03T01:49:17.083Z,19.50
2023-08-03T01:51:20.016Z,19.39
2023-08-03T01:53:23.083Z,19.41
2023-08-03T01:55:26.328Z,19.29
2023-08-03T01:57:32.087Z,19.20
2023-08-03T01:59:36.625Z,19.17
2023-08-03T02:01:40.964Z,18.94
2023-08-03T02:03:43.885Z,18.95
2023-08-03T02:05:47.566Z,18.92
2023-08-03T02:07:55.516Z,18.82
2023-08-03T02:09:58.595Z,18.86
2023-08-03T02:12:01.708Z,18.86
2023-08-03T02:14:06.543Z,18.75
2023-08-03T02:16:23.904Z,18.68
2023-08-03T02:18:30.687Z,18.54
2023-08-03T02:20:33.805Z,18.51
2023-08-03T02:22:37.091Z,18.44
2023-08-03T02:24:40.452Z,18.30
2023-08-03T02:26:43.408Z,18.32
2023-08-03T02:28:46.433Z,18.39
2023-08-03T02:30:52.042Z,18.42
2023-08-03T02:32:55.420Z,18.41
2023-08-03T02:35:01.085Z,18.47
2023-08-03T02:37:05.125Z,18.53
2023-08-03T02:39:08.331Z,18.49
2023-08-03T02:41:13.629Z,18.51
2023-08-03T02:43:16.649Z,18.49
2023-08-03T02:45:21.105Z,18.44
2023-08-03T02:47:26.484Z,18.39
2023-08-03T02:49:29.825Z,18.23
2023-08-03T02:51:36.013Z,18.39
2023-08-03T02:53:39.023Z,18.37
2023-08-03T02:55:44.220Z,18.35
2023-08-03T02:57:47.462Z,18.37
2023-08-03T02:59:50.483Z,18.37
2023-08-03T03:01:57.277Z,18.43
2023-08-03T03:04:09.374Z,18.31
2023-08-03T03:06:17.586Z,18.43
2023-08-03T03:08:23.650Z,18.35
2023-08-03T03:10:26.923Z,18.39
2023-08-03T03:12:30.154Z,18.49
2023-08-03T03:14:33.167Z,18.29
2023-08-03T03:16:36.157Z,18.41
2023-08-03T03:18:39.232Z,18.25
2023-08-03T03:20:45.104Z,18.24
2023-08-03T03:22:48.623Z,18.31
2023-08-03T03:24:52.635Z,18.35
2023-08-03T03:26:55.755Z,18.39
2023-08-03T03:28:59.224Z,18.44
2023-08-03T03:31:07.429Z,18.44
2023-08-03T03:33:10.506Z,18.34
2023-08-03T03:35:18.162Z,18.31
2023-08-03T03:37:22.988Z,18.22
2023-08-03T03:39:25.902Z,18.20
2023-08-03T03:41:29.770Z,18.22
2023-08-03T03:43:32.701Z,18.31
2023-08-03T03:45:35.669Z,18.35
2023-08-03T03:47:38.874Z,18.39
2023-08-03T03:49:42.636Z,18.34
2023-08-03T03:51:45.998Z,18.29
2023-08-03T03:53:51.724Z,18.31
2023-08-03T03:55:54.921Z,18.35
2023-08-03T03:58:00.270Z,18.31
2023-08-03T04:00:06.208Z,18.32
2023-08-03T04:02:17.753Z,18.28
2023-08-03T04:04:21.267Z,18.29
2023-08-03T04:06:24.351Z,18.33
2023-08-03T04:08:29.923Z,18.31
2023-08-03T04:10:36.665Z,18.21
2023-08-03T04:12:39.699Z,18.29
2023-08-03T04:14:42.716Z,18.26
2023-08-03T04:16:45.706Z,18.18
2023-08-03T04:18:48.645Z,18.14
2023-08-03T04:20:51.707Z,18.26
2023-08-03T04:22:54.696Z,18.30
2023-08-03T04:24:57.963Z,18.23
2023-08-03T04:27:02.567Z,18.23
2023-08-03T04:29:05.813Z,18.24
2023-08-03T04:31:08.787Z,18.26
2023-08-03T04:33:13.397Z,18.29
2023-08-03T04:35:17.434Z,18.19
2023-08-03T04:37:26.135Z,18.20
2023-08-03T04:39:29.273Z,18.20
2023-08-03T04:41:32.450Z,18.21
2023-08-03T04:43:36.902Z,18.26
2023-08-03T04:45:42.405Z,18.27
2023-08-03T04:47:45.256Z,18.30
2023-08-03T04:49:48.550Z,18.35
2023-08-03T04:51:51.482Z,18.38
2023-08-03T04:53:56.506Z,18.43
2023-08-03T04:56:02.986Z,18.34
2023-08-03T04:58:06.444Z,18.40
2023-08-03T05:00:12.957Z,18.46
2023-08-03T05:02:16.183Z,18.42
2023-08-03T05:04:19.538Z,18.41
2023-08-03T05:06:23.582Z,18.43
2023-08-03T05:08:26.823Z,18.39
2023-08-03T05:10:30.056Z,18.42
2023-08-03T05:12:33.178Z,18.36
2023-08-03T05:14:36.095Z,18.45
2023-08-03T05:16:40.635Z,18.41
2023-08-03T05:18:43.594Z,18.37
2023-08-03T05:20:46.872Z,18.38
2023-08-03T05:22:49.909Z,18.38
2023-08-03T05:24:52.955Z,18.37
2023-08-03T05:26:55.995Z,18.24
2023-08-03T05:28:59.168Z,18.24
2023-08-03T05:31:02.134Z,18.28
2023-08-03T05:33:06.700Z,18.31
2023-08-03T05:35:10.005Z,18.38
2023-08-03T05:37:15.544Z,18.43
2023-08-03T05:39:18.575Z,18.46
2023-08-03T05:41:23.437Z,18.43
2023-08-03T05:43:29.093Z,18.42
2023-08-03T05:45:36.655Z,18.47
2023-08-03T05:47:40.693Z,18.36
2023-08-03T05:49:45.104Z,18.41
2023-08-03T05:51:48.240Z,18.45
2023-08-03T05:53:51.463Z,18.48
2023-08-03T05:56:06.029Z,18.46
2023-08-03T05:58:18.003Z,18.44
2023-08-03T06:00:23.514Z,18.40
2023-08-03T06:02:34.650Z,18.43
2023-08-03T06:04:38.587Z,18.42
2023-08-03T06:06:43.506Z,18.37
2023-08-03T06:08:51.254Z,18.39
2023-08-03T06:10:56.913Z,18.40
2023-08-03T06:12:59.749Z,18.47
2023-08-03T06:15:02.842Z,18.49
2023-08-03T06:17:06.864Z,18.52
2023-08-03T06:19:11.238Z,18.50
2023-08-03T06:21:16.013Z,18.51
2023-08-03T06:23:22.092Z,18.55
2023-08-03T06:25:25.306Z,18.51
2023-08-03T06:27:28.279Z,18.45
2023-08-03T06:29:31.314Z,18.47
2023-08-03T06:31:41.411Z,18.53
2023-08-03T06:33:45.955Z,18.48
2023-08-03T06:35:51.596Z,18.50
2023-08-03T06:37:55.378Z,18.56
2023-08-03T06:39:59.819Z,18.52
2023-08-03T06:42:04.402Z,18.57
2023-08-03T06:44:07.925Z,18.54
2023-08-03T06:46:11.102Z,18.60
2023-08-03T06:48:16.434Z,18.61
2023-08-03T06:50:19.116Z,18.54
2023-08-03T06:52:22.045Z,18.57
2023-08-03T06:54:25.038Z,18.54
2023-08-03T06:56:29.456Z,18.55
2023-08-03T06:58:34.436Z,18.57
2023-08-03T07:00:42.342Z,18.53
2023-08-03T07:02:47.646Z,18.59
2023-08-03T07:04:50.738Z,18.51
2023-08-03T07:06:53.728Z,18.56
2023-08-03T07:08:56.681Z,18.55
2023-08-03T07:10:59.740Z,18.50
2023-08-03T07:13:05.116Z,18.51
2023-08-03T07:15:08.395Z,18.48
2023-08-03T07:17:12.988Z,18.52
2023-08-03T07:19:19.641Z,18.23
2023-08-03T07:21:22.568Z,18.26
2023-08-03T07:23:25.628Z,18.24
2023-08-03T07:25:29.188Z,18.24
2023-08-03T07:27:32.561Z,18.29
2023-08-03T07:29:37.095Z,18.34
2023-08-03T07:31:40.105Z,18.32
2023-08-03T07:33:43.403Z,18.22
2023-08-03T07:35:46.325Z,18.32
2023-08-03T07:37:49.372Z,18.26
2023-08-03T07:39:52.296Z,18.26
2023-08-03T07:41:55.648Z,18.24
2023-08-03T07:43:58.664Z,18.33
2023-08-03T07:46:04.877Z,18.36
2023-08-03T07:48:07.998Z,18.00
2023-08-03T07:50:12.366Z,18.01
2023-08-03T07:52:15.455Z,17.96
2023-08-03T07:54:18.449Z,18.01
2023-08-03T07:56:22.819Z,18.13
2023-08-03T07:58:25.804Z,18.19
2023-08-03T08:00:28.948Z,18.16
2023-08-03T08:02:33.538Z,18.19
2023-08-03T08:04:36.576Z,18.16
2023-08-03T08:06:39.642Z,18.10
2023-08-03T08:08:42.988Z,18.12
2023-08-03T08:12:59.377Z,18.14
2023-08-03T08:15:02.357Z,18.07
2023-08-03T08:19:12.955Z,18.03
2023-08-03T08:21:16.172Z,17.96
2023-08-03T08:23:19.317Z,18.00
2023-08-03T08:25:22.637Z,18.07
2023-08-03T08:27:25.919Z,18.07
2023-08-03T08:29:29.015Z,17.81
2023-08-03T08:31:52.686Z,17.89
2023-08-03T08:33:55.608Z,18.02
2023-08-03T08:36:00.069Z,18.02
2023-08-03T08:38:03.710Z,18.07
2023-08-03T08:40:10.551Z,17.93
2023-08-03T08:42:14.303Z,18.02
2023-08-03T08:44:17.375Z,18.05
2023-08-03T08:46:20.504Z,17.99
2023-08-03T08:50:32.286Z,18.11
2023-08-03T09:01:06.330Z,17.50
2023-08-03T09:03:09.439Z,17.38
2023-08-03T09:05:15.585Z,17.62
2023-08-03T09:07:19.325Z,17.60
2023-08-03T09:09:29.701Z,17.61
2023-08-03T09:11:40.093Z,17.70
2023-08-03T09:13:43.144Z,17.81
2023-08-03T09:15:46.355Z,17.79
2023-08-03T09:17:49.321Z,17.60
2023-08-03T09:28:39.985Z,17.96
2023-08-03T09:32:56.932Z,17.93
2023-08-03T09:35:00.668Z,17.92
2023-08-03T09:46:04.046Z,17.93
2023-08-03T09:48:07.697Z,17.95
2023-08-03T09:50:11.842Z,17.90
2023-08-03T09:52:49.077Z,17.58
2023-08-03T09:59:21.204Z,18.12
2023-08-03T10:01:25.977Z,18.15
2023-08-03T10:03:31.613Z,18.22
2023-08-03T10:05:40.092Z,18.24
2023-08-03T10:07:54.264Z,18.14
2023-08-03T10:10:00.653Z,18.20
2023-08-03T10:12:09.683Z,18.36
2023-08-03T10:14:17.616Z,18.38
2023-08-03T10:16:21.146Z,18.37
2023-08-03T10:18:49.203Z,18.37
2023-08-03T10:20:49.660Z,18.28
2023-08-03T10:23:10.233Z,18.27
2023-08-03T10:25:20.118Z,18.36
2023-08-03T10:27:26.095Z,18.44
2023-08-03T10:29:54.362Z,18.40
2023-08-03T10:31:57.705Z,18.50
2023-08-03T10:34:25.369Z,18.43
2023-08-03T10:36:44.965Z,18.47
2023-08-03T10:38:47.864Z,18.48
2023-08-03T10:40:50.815Z,18.52
2023-08-03T10:43:09.896Z,18.33
2023-08-03T10:45:27.743Z,18.18
2023-08-03T10:47:31.624Z,18.40
2023-08-03T10:49:52.233Z,18.43
2023-08-03T10:51:56.624Z,18.44
2023-08-03T10:53:59.946Z,18.44
2023-08-03T10:56:08.789Z,18.56
2023-08-03T10:58:13.321Z,18.64
2023-08-03T11:00:16.602Z,18.50
2023-08-03T11:02:22.531Z,18.51
2023-08-03T11:04:25.829Z,18.32
2023-08-03T11:06:30.334Z,18.17
2023-08-03T11:08:36.679Z,18.29
2023-08-03T11:10:40.526Z,18.24
2023-08-03T11:12:45.085Z,18.34
2023-08-03T11:14:53.488Z,18.30
2023-08-03T11:16:56.922Z,18.23
2023-08-03T11:18:59.952Z,18.39
2023-08-03T11:21:02.886Z,18.27
2023-08-03T11:23:05.856Z,18.32
2023-08-03T11:25:09.276Z,18.34
2023-08-03T11:27:14.428Z,18.38
2023-08-03T11:29:17.499Z,18.38
2023-08-03T11:31:22.788Z,18.40
2023-08-03T11:33:25.733Z,18.48
2023-08-03T11:35:29.954Z,18.51
2023-08-03T11:37:33.841Z,18.27
2023-08-03T11:39:37.045Z,18.42
2023-08-03T11:41:40.586Z,18.44
2023-08-03T11:43:43.758Z,18.56
2023-08-03T11:45:48.384Z,18.55
2023-08-03T11:47:53.234Z,18.67
2023-08-03T11:50:03.138Z,18.72
2023-08-03T11:52:06.916Z,18.76
2023-08-03T11:54:13.848Z,18.78
2023-08-03T11:58:24.481Z,18.19
2023-08-03T12:00:27.357Z,18.43
2023-08-03T12:02:40.396Z,18.56
2023-08-03T12:04:54.188Z,18.55
2023-08-03T12:06:58.107Z,18.61
2023-08-03T12:09:01.231Z,18.73
2023-08-03T12:11:08.251Z,18.79
2023-08-03T12:13:11.151Z,18.59
2023-08-03T12:15:14.354Z,18.72
2023-08-03T12:17:17.455Z,18.78
2023-08-03T12:19:21.355Z,18.85
2023-08-03T12:21:26.109Z,18.82
2023-08-03T12:23:29.317Z,18.73
2023-08-03T12:25:32.693Z,18.83
2023-08-03T12:27:38.483Z,18.69
2023-08-03T12:29:42.518Z,18.73
2023-08-03T12:31:45.822Z,18.67
2023-08-03T12:33:49.177Z,18.70
2023-08-03T12:35:52.168Z,18.68
2023-08-03T12:37:58.871Z,18.66
2023-08-03T12:40:02.265Z,18.70
2023-08-03T12:42:05.783Z,18.68
2023-08-03T12:44:09.584Z,18.71
2023-08-03T12:46:12.562Z,18.77
2023-08-03T12:48:17.722Z,18.70
2023-08-03T12:50:20.725Z,18.72
2023-08-03T12:52:24.032Z,18.73
2023-08-03T12:54:29.736Z,18.81
2023-08-03T12:56:37.473Z,18.77
2023-08-03T12:58:40.543Z,18.99
2023-08-03T13:00:43.737Z,19.04
2023-08-03T13:02:46.944Z,19.29
2023-08-03T13:04:52.416Z,19.46
2023-08-03T13:06:55.969Z,19.62
2023-08-03T13:08:59.131Z,19.80
2023-08-03T13:11:03.681Z,19.96
2023-08-03T13:13:07.559Z,20.11
2023-08-03T13:15:11.116Z,20.23
2023-08-03T13:17:14.256Z,20.35
2023-08-03T13:19:17.515Z,20.35
2023-08-03T13:21:22.820Z,20.43
2023-08-03T13:23:26.375Z,20.49
2023-08-03T13:25:29.809Z,20.54
2023-08-03T13:27:34.396Z,20.95
2023-08-03T13:29:37.364Z,21.33
2023-08-03T13:31:41.934Z,21.60
2023-08-03T13:33:44.904Z,21.77
2023-08-03T13:35:47.935Z,22.06
2023-08-03T13:37:52.915Z,22.41
2023-08-03T13:39:55.924Z,22.46
2023-08-03T13:41:58.979Z,22.52
2023-08-03T13:44:03.548Z,22.70
2023-08-03T13:46:06.668Z,22.83
2023-08-03T13:48:09.661Z,22.72
2023-08-03T13:50:12.825Z,22.70
2023-08-03T13:52:15.905Z,22.53
2023-08-03T13:54:18.862Z,22.32
2023-08-03T13:56:32.368Z,22.27
2023-08-03T13:58:47.394Z,22.13
2023-08-03T14:00:52.657Z,22.35
2023-08-03T14:02:56.110Z,22.20
2023-08-03T14:05:01.513Z,21.92
2023-08-03T14:09:13.046Z,21.73
2023-08-03T14:13:57.132Z,21.49
2023-08-03T14:16:29.088Z,21.36
2023-08-03T14:22:21.213Z,21.19
2023-08-03T14:24:26.742Z,21.21
2023-08-03T14:26:30.198Z,21.12
2023-08-03T14:30:40.399Z,20.85
2023-08-03T14:32:44.603Z,20.89
2023-08-03T14:36:56.029Z,20.91
2023-08-03T14:38:59.118Z,20.89
2023-08-03T14:41:02.194Z,20.91
2023-08-03T14:43:05.917Z,20.98
2023-08-03T14:45:10.177Z,21.11
2023-08-03T14:47:14.492Z,21.27
2023-08-03T14:49:17.833Z,21.31
2023-08-03T14:53:28.167Z,21.83
2023-08-03T14:55:31.983Z,22.06
2023-08-03T14:57:34.960Z,22.09
2023-08-03T14:59:38.214Z,22.13
2023-08-03T15:01:41.427Z,21.85
2023-08-03T15:03:44.679Z,21.77
2023-08-03T15:05:48.037Z,21.59
2023-08-03T15:07:53.224Z,21.58
2023-08-03T15:09:56.570Z,21.56
2023-08-03T15:12:00.136Z,21.83
2023-08-03T15:14:03.573Z,21.95
2023-08-03T15:18:18.920Z,21.80
2023-08-03T15:20:23.736Z,21.62
2023-08-03T15:22:29.894Z,21.60
2023-08-03T15:24:35.495Z,21.47
2023-08-03T15:26:40.643Z,21.33
2023-08-03T15:28:52.392Z,21.40
2023-08-03T15:31:00.482Z,21.37
2023-08-03T15:35:11.238Z,21.31
2023-08-03T15:37:14.869Z,21.38
2023-08-03T15:39:20.218Z,21.46
2023-08-03T15:41:30.828Z,21.61
2023-08-03T15:43:37.400Z,21.69
2023-08-03T15:45:46.041Z,21.83
2023-08-03T15:49:57.491Z,21.69
2023-08-03T15:52:11.336Z,21.49
2023-08-03T15:54:20.627Z,21.25
2023-08-03T15:56:30.338Z,21.24
2023-08-03T15:58:33.377Z,21.09
2023-08-03T16:00:37.165Z,20.90
2023-08-03T16:02:40.886Z,20.96
2023-08-03T16:04:44.054Z,20.93
2023-08-03T16:06:47.334Z,21.01
2023-08-03T16:08:50.844Z,20.93
2023-08-03T16:11:00.214Z,20.80
2023-08-03T16:13:06.574Z,20.81
2023-08-03T16:15:10.304Z,20.80
2023-08-03T16:17:13.594Z,20.75
2023-08-03T16:19:16.821Z,20.80
2023-08-03T16:21:19.826Z,20.77
2023-08-03T16:23:23.270Z,20.75
2023-08-03T16:25:27.354Z,20.72
2023-08-03T16:27:30.331Z,20.74
2023-08-03T16:29:35.736Z,20.65
2023-08-03T16:31:41.796Z,20.60
2023-08-03T16:33:46.100Z,20.67
2023-08-03T16:35:50.677Z,20.59
2023-08-03T16:37:53.836Z,20.61
2023-08-03T16:39:56.847Z,20.63
2023-08-03T16:41:59.932Z,20.57
2023-08-03T16:44:02.857Z,20.53
2023-08-03T16:46:07.746Z,20.53
2023-08-03T16:48:10.790Z,20.48
2023-08-03T16:50:14.182Z,20.42
2023-08-03T16:52:17.159Z,20.51
2023-08-03T16:54:20.320Z,20.49
2023-08-03T16:56:23.274Z,20.43
2023-08-03T16:58:26.358Z,20.33
2023-08-03T17:00:29.536Z,20.40
2023-08-03T17:02:34.105Z,20.37
2023-08-03T17:04:40.167Z,20.27
2023-08-03T17:06:43.370Z,20.19
2023-08-03T17:08:46.456Z,20.24
2023-08-03T17:10:49.392Z,20.21
2023-08-03T17:12:52.411Z,20.20
2023-08-03T17:14:55.796Z,20.19
2023-08-03T17:16:58.859Z,20.06
2023-08-03T17:19:03.417Z,19.97
2023-08-03T17:21:08.065Z,20.05
2023-08-03T17:23:11.149Z,19.98
2023-08-03T17:25:14.227Z,19.93
2023-08-03T17:27:17.221Z,19.88
2023-08-03T17:29:20.315Z,19.87
2023-08-03T17:31:23.416Z,19.86
2023-08-03T17:33:26.686Z,19.87
2023-08-03T17:35:32.455Z,19.74
2023-08-03T17:37:35.384Z,19.63
2023-08-03T17:39:38.401Z,19.55
2023-08-03T17:41:41.344Z,19.43
2023-08-03T17:43:44.394Z,19.52
2023-08-03T17:45:47.446Z,19.35
2023-08-03T17:47:50.573Z,19.48
2023-08-03T17:49:53.594Z,19.32
2023-08-03T17:51:58.621Z,19.28
2023-08-03T17:54:01.650Z,19.30
2023-08-03T17:56:12.045Z,19.18
2023-08-03T17:58:15.137Z,19.16
2023-08-03T18:00:18.596Z,19.08
2023-08-03T18:02:21.633Z,19.13
2023-08-03T18:04:27.450Z,19.09
2023-08-03T18:06:30.040Z,19.09
2023-08-03T18:08:34.597Z,19.04
2023-08-03T18:10:37.522Z,19.09
2023-08-03T18:12:40.667Z,19.10
2023-08-03T18:14:43.616Z,18.97
2023-08-03T18:16:47.041Z,18.93
2023-08-03T18:18:51.129Z,18.95
2023-08-03T18:20:54.137Z,18.99
2023-08-03T18:22:58.046Z,18.86
2023-08-03T18:25:02.498Z,18.86
2023-08-03T18:27:06.578Z,18.90
2023-08-03T18:29:09.764Z,18.82
2023-08-03T18:31:13.130Z,18.77
2023-08-03T18:33:16.185Z,18.74
2023-08-03T18:35:19.256Z,18.79
2023-08-03T18:37:22.176Z,18.81
2023-08-03T18:39:25.477Z,18.63
2023-08-03T18:41:29.915Z,18.72
2023-08-03T18:43:34.283Z,18.63
2023-08-03T18:45:37.316Z,18.57
2023-08-03T18:47:40.374Z,18.57
2023-08-03T18:49:43.399Z,18.51
2023-08-03T18:51:46.454Z,18.46
2023-08-03T18:53:51.092Z,18.48
2023-08-03T18:55:54.488Z,18.40
2023-08-03T18:57:58.993Z,18.43
2023-08-03T19:00:01.891Z,18.35
2023-08-03T19:02:05.777Z,18.37
2023-08-03T19:04:08.724Z,18.18
2023-08-03T19:06:12.674Z,18.21
2023-08-03T19:08:15.736Z,18.21
2023-08-03T19:10:22.251Z,18.24
2023-08-03T19:12:25.291Z,18.24
2023-08-03T19:14:29.787Z,18.20
2023-08-03T19:18:36.701Z,18.21
2023-08-03T19:20:39.655Z,18.09
2023-08-03T19:22:42.959Z,18.19
2023-08-03T19:24:46.221Z,18.18
2023-08-03T19:26:53.324Z,18.14
2023-08-03T19:28:56.251Z,18.14
2023-08-03T19:31:00.750Z,18.11
2023-08-03T19:33:05.580Z,18.04
2023-08-03T19:35:09.467Z,18.06
2023-08-03T19:37:12.553Z,18.09
2023-08-03T19:39:15.624Z,18.00
2023-08-03T19:41:18.770Z,17.97
2023-08-03T19:43:23.847Z,17.92
2023-08-03T19:45:27.360Z,17.96
2023-08-03T19:47:32.086Z,17.95
2023-08-03T19:53:46.914Z,17.79
2023-08-03T19:56:35.999Z,17.76
2023-08-03T19:58:15.442Z,17.70
2023-08-03T20:06:39.872Z,17.61
2023-08-03T20:10:51.630Z,17.59
2023-08-03T20:13:10.597Z,17.49
2023-08-03T20:15:15.408Z,17.54
2023-08-03T20:19:24.954Z,17.47
2023-08-03T20:21:29.532Z,17.41
2023-08-03T20:23:32.377Z,17.36
2023-08-03T20:25:35.386Z,17.40
2023-08-03T20:27:41.617Z,17.34
2023-08-03T20:30:00.146Z,17.32
2023-08-03T20:32:03.633Z,17.29
2023-08-03T20:36:12.567Z,17.33
2023-08-03T20:38:17.423Z,17.31
2023-08-03T20:40:48.061Z,17.24
2023-08-03T20:42:43.564Z,17.31
2023-08-03T20:46:55.434Z,17.30
2023-08-03T20:48:58.693Z,17.26
2023-08-03T20:51:02.131Z,17.27
2023-08-03T20:53:06.888Z,17.29
2023-08-03T20:55:11.592Z,17.18
2023-08-03T20:57:14.753Z,17.22
2023-08-03T20:59:18.632Z,17.12
2023-08-03T21:01:21.795Z,17.20
2023-08-03T21:03:25.332Z,17.15
2023-08-03T21:07:39.155Z,17.10
2023-08-03T21:10:50.340Z,17.00
2023-08-03T21:12:10.541Z,17.04
2023-08-03T21:14:13.525Z,16.98
2023-08-03T21:16:16.764Z,16.94
2023-08-03T21:20:26.160Z,16.92
2023-08-03T21:22:29.587Z,16.81
2023-08-03T21:24:32.702Z,16.81
2023-08-03T21:26:36.944Z,16.81
2023-08-03T21:28:41.696Z,16.83
2023-08-03T21:30:44.704Z,16.78
2023-08-03T21:32:47.734Z,16.80
2023-08-03T21:34:50.663Z,16.76
2023-08-03T21:36:53.823Z,16.74
2023-08-03T21:38:57.430Z,16.76
2023-08-03T21:41:00.490Z,16.64
2023-08-03T21:43:03.504Z,16.64
2023-08-03T21:45:11.588Z,16.60
2023-08-03T21:47:14.766Z,16.58
2023-08-03T21:49:17.923Z,16.55
2023-08-03T21:51:21.464Z,16.63
2023-08-03T21:53:24.746Z,16.61
2023-08-03T21:55:27.879Z,16.64
2023-08-03T21:57:30.943Z,16.60
2023-08-03T21:59:35.105Z,16.43
2023-08-03T22:01:39.604Z,16.53
2023-08-03T22:03:42.504Z,16.52
2023-08-03T22:05:45.846Z,16.45
2023-08-03T22:07:48.795Z,16.40
2023-08-03T22:09:51.852Z,16.39
2023-08-03T22:11:54.864Z,16.38
2023-08-03T22:13:58.065Z,16.33
2023-08-03T22:16:01.005Z,16.32
2023-08-03T22:18:05.881Z,16.30
2023-08-03T22:20:10.057Z,16.26
2023-08-03T22:22:14.235Z,16.18
2023-08-03T22:24:17.747Z,16.28
2023-08-03T22:26:21.408Z,16.22
2023-08-03T22:28:24.481Z,16.28
2023-08-03T22:30:27.835Z,16.26
2023-08-03T22:32:30.752Z,16.29
2023-08-03T22:34:35.390Z,16.27
2023-08-03T22:36:38.441Z,16.23
2023-08-03T22:38:44.553Z,16.24
2023-08-03T22:40:54.946Z,16.24
2023-08-03T22:42:58.660Z,16.22
2023-08-03T22:45:02.690Z,16.17
2023-08-03T22:47:06.617Z,16.12
2023-08-03T22:49:09.604Z,16.14
2023-08-03T22:51:17.245Z,16.07
2023-08-03T22:53:20.187Z,16.12
2023-08-03T22:55:23.266Z,16.07
2023-08-03T22:57:26.572Z,16.06
2023-08-03T22:59:29.629Z,16.04
2023-08-03T23:01:32.628Z,16.05
2023-08-03T23:03:35.792Z,16.01
2023-08-03T23:05:38.881Z,15.96
2023-08-03T23:07:43.649Z,15.91
2023-08-03T23:09:46.548Z,15.93
2023-08-03T23:11:49.898Z,15.99
2023-08-03T23:13:53.119Z,15.96
2023-08-03T23:15:56.073Z,16.00
2023-08-03T23:17:59.274Z,15.95
2023-08-03T23:20:04.797Z,16.01
2023-08-03T23:22:07.662Z,16.07
2023-08-03T23:24:12.409Z,16.03
2023-08-03T23:26:18.200Z,16.10
2023-08-03T23:28:21.887Z,16.11
2023-08-03T23:30:24.685Z,16.08
2023-08-03T23:32:27.536Z,16.05
2023-08-03T23:34:30.565Z,16.03
2023-08-03T23:36:33.479Z,16.03
2023-08-03T23:38:36.501Z,16.04
2023-08-03T23:40:40.958Z,16.01
2023-08-03T23:42:43.863Z,15.97
2023-08-03T23:44:46.824Z,15.92
2023-08-03T23:46:49.694Z,15.81
2023-08-03T23:48:52.781Z,15.68
2023-08-03T23:50:55.962Z,15.46
2023-08-03T23:52:59.005Z,15.41
2023-08-03T23:55:01.913Z,15.40
2023-08-03T23:57:06.856Z,15.36
2023-08-03T23:59:09.994Z,15.44
